createdAt,value
2023-04-25T00:03:22.822Z,3.53
2023-04-25T00:08:24.111Z,7.75
2023-04-25T00:13:31.571Z,4.03
2023-04-25T00:18:40.078Z,4.32
2023-04-25T00:23:39.986Z,4.95
2023-04-25T00:28:45.715Z,4.57
2023-04-25T00:33:47.172Z,3.55
2023-04-25T00:38:47.899Z,4.50
2023-04-25T00:43:53.129Z,4.43
2023-04-25T00:48:52.438Z,3.60
2023-04-25T00:53:53.574Z,5.68
2023-04-25T00:58:56.849Z,5.03
2023-04-25T01:03:55.883Z,9.83
2023-04-25T01:08:55.248Z,4.63
2023-04-25T01:13:55.772Z,4.88
2023-04-25T01:18:58.131Z,4.57
2023-04-25T01:23:56.975Z,4.63
2023-04-25T01:28:59.383Z,6.90
2023-04-25T01:34:01.706Z,4.60
2023-04-25T01:39:01.858Z,4.70
2023-04-25T01:44:02.753Z,4.38
2023-04-25T01:49:02.530Z,4.40
2023-04-25T01:54:05.439Z,4.30
2023-04-25T01:59:03.275Z,3.78
2023-04-25T02:04:20.310Z,6.95
2023-04-25T02:09:28.163Z,4.10
2023-04-25T02:14:32.000Z,4.13
2023-04-25T02:19:42.890Z,4.97
2023-04-25T02:24:44.625Z,4.45
2023-04-25T02:29:44.237Z,4.60
2023-04-25T02:34:44.621Z,6.00
2023-04-25T02:39:44.279Z,5.97
2023-04-25T02:44:45.071Z,5.15
2023-04-25T02:49:47.312Z,5.45
2023-04-25T02:54:45.699Z,5.03
2023-04-25T02:59:47.407Z,5.22
2023-04-25T03:04:47.541Z,5.97
2023-04-25T03:09:51.953Z,6.93
2023-04-25T03:14:54.361Z,5.10
2023-04-25T03:19:53.150Z,5.40
2023-04-25T03:25:04.497Z,6.03
2023-04-25T03:30:04.397Z,5.63
2023-04-25T03:35:05.182Z,6.05
2023-04-25T03:40:06.184Z,5.47
2023-04-25T03:45:26.637Z,6.05
2023-04-25T03:50:28.886Z,5.47
2023-04-25T03:55:31.919Z,6.47
2023-04-25T04:00:32.146Z,10.40
2023-04-25T04:05:34.064Z,5.95
2023-04-25T04:10:42.561Z,9.52
2023-04-25T04:15:46.612Z,8.93
2023-04-25T04:20:45.637Z,6.35
2023-04-25T04:25:44.852Z,7.32
2023-04-25T04:30:58.878Z,6.93
2023-04-25T04:36:00.270Z,8.77
2023-04-25T04:41:06.151Z,5.72
2023-04-25T04:46:29.330Z,7.07
2023-04-25T04:52:00.738Z,5.93
2023-04-25T04:57:09.140Z,8.32
2023-04-25T05:07:51.698Z,6.13
2023-04-25T05:13:12.898Z,5.88
2023-04-25T05:18:33.402Z,7.07
2023-04-25T05:23:57.122Z,6.50
2023-04-25T05:29:26.546Z,6.35
2023-04-25T05:34:48.491Z,9.57
2023-04-25T05:39:58.048Z,6.53
2023-04-25T05:45:07.770Z,6.78
2023-04-25T05:50:30.696Z,7.35
2023-04-25T05:55:59.652Z,9.32
2023-04-25T06:01:00.618Z,10.17
2023-04-25T06:06:02.590Z,10.02
2023-04-25T06:11:04.253Z,12.10
2023-04-25T06:16:04.529Z,10.05
2023-04-25T06:21:03.726Z,22.48
2023-04-25T06:26:06.665Z,26.80
2023-04-25T06:31:08.948Z,10.00
2023-04-25T06:36:07.654Z,13.60
2023-04-25T06:41:08.360Z,11.57
2023-04-25T06:46:09.087Z,11.23
2023-04-25T06:51:18.881Z,11.93
2023-04-25T06:56:32.090Z,23.98
2023-04-25T07:01:42.560Z,13.70
2023-04-25T07:06:48.662Z,21.95
2023-04-25T07:11:55.502Z,13.48
2023-04-25T07:16:58.280Z,11.88
2023-04-25T07:21:59.443Z,16.95
2023-04-25T07:26:59.388Z,17.15
2023-04-25T07:32:02.623Z,16.95
2023-04-25T07:37:02.366Z,17.40
2023-04-25T07:42:11.409Z,16.60
2023-04-25T07:47:15.134Z,11.70
2023-04-25T07:52:13.494Z,18.35
2023-04-25T07:57:20.412Z,10.90
2023-04-25T08:02:21.060Z,10.18
2023-04-25T08:07:21.196Z,9.68
2023-04-25T08:12:24.167Z,9.27
2023-04-25T08:17:29.044Z,8.73
2023-04-25T08:22:29.742Z,7.30
2023-04-25T08:27:46.344Z,12.68
2023-04-25T08:32:44.241Z,9.02
2023-04-25T08:38:02.376Z,8.75
2023-04-25T08:43:14.433Z,9.60
2023-04-25T08:48:17.605Z,10.15
2023-04-25T08:53:36.144Z,10.00
2023-04-25T08:58:37.587Z,8.48
2023-04-25T09:03:37.788Z,9.27
2023-04-25T09:08:38.579Z,9.43
2023-04-25T09:13:38.757Z,7.03
2023-04-25T09:19:01.263Z,6.15
2023-04-25T09:24:01.725Z,7.43
2023-04-25T09:29:11.900Z,8.13
2023-04-25T09:34:28.433Z,7.38
2023-04-25T09:39:32.868Z,11.00
2023-04-25T09:44:44.419Z,9.05
2023-04-25T09:49:50.769Z,10.20
2023-04-25T10:07:15.694Z,15.35
2023-04-25T10:12:17.969Z,9.45
2023-04-25T10:17:21.384Z,5.97
2023-04-25T10:22:25.538Z,4.25
2023-04-25T10:27:27.115Z,8.15
2023-04-25T10:32:29.507Z,1.35
2023-04-25T10:38:01.068Z,2.78
2023-04-25T10:43:32.979Z,1.88
2023-04-25T10:48:32.866Z,1.90
2023-04-25T10:53:35.255Z,5.50
2023-04-25T10:58:33.617Z,2.97
2023-04-25T11:03:42.980Z,3.33
2023-04-25T11:08:53.130Z,5.30
2023-04-25T11:13:55.158Z,2.63
2023-04-25T11:18:56.810Z,2.90
2023-04-25T11:24:02.123Z,2.42
2023-04-25T11:29:02.890Z,6.35
2023-04-25T11:34:04.189Z,3.42
2023-04-25T11:39:07.322Z,3.40
2023-04-25T11:44:09.711Z,3.92
2023-04-25T11:49:10.990Z,2.42
2023-04-25T11:54:10.058Z,3.10
2023-04-25T11:59:18.777Z,3.22
2023-04-25T12:04:22.104Z,3.53
2023-04-25T12:09:22.770Z,3.45
2023-04-25T12:14:34.475Z,3.33
2023-04-25T12:19:38.002Z,3.03
2023-04-25T12:24:40.534Z,3.05
2023-04-25T12:29:52.730Z,2.08
2023-04-25T12:34:53.013Z,1.38
2023-04-25T12:39:54.992Z,2.25
2023-04-25T12:44:57.422Z,2.97
2023-04-25T12:50:00.357Z,2.42
2023-04-25T12:55:01.194Z,1.73
2023-04-25T13:00:01.906Z,1.58
2023-04-25T13:05:02.794Z,1.63
2023-04-25T13:10:04.328Z,4.18
2023-04-25T13:15:05.935Z,3.20
2023-04-25T13:20:19.674Z,1.83
2023-04-25T13:25:20.284Z,4.95
2023-04-25T13:30:39.002Z,8.77
2023-04-25T13:36:12.641Z,2.25
2023-04-25T13:41:22.518Z,4.55
2023-04-25T13:51:38.070Z,2.00
2023-04-25T13:56:38.434Z,4.53
2023-04-25T14:01:40.658Z,4.60
2023-04-25T14:06:50.613Z,3.50
2023-04-25T14:11:53.832Z,5.38
2023-04-25T14:16:57.215Z,2.20
2023-04-25T14:26:59.968Z,1.77
2023-04-25T14:32:04.544Z,1.48
2023-04-25T14:37:04.034Z,0.73
2023-04-25T14:42:08.156Z,2.97
2023-04-25T14:47:08.433Z,4.30
2023-04-25T14:52:07.482Z,4.28
2023-04-25T14:57:17.857Z,6.03
2023-04-25T15:02:31.437Z,32.83
2023-04-25T15:07:33.622Z,14.00
2023-04-25T15:12:32.488Z,2.67
2023-04-25T15:17:37.295Z,2.92
2023-04-25T15:22:36.746Z,5.22
2023-04-25T15:27:41.106Z,1.95
2023-04-25T15:32:43.687Z,2.13
2023-04-25T15:37:43.008Z,3.45
2023-04-25T15:42:48.137Z,5.72
2023-04-25T15:47:57.588Z,2.60
2023-04-25T15:53:25.326Z,1.70
2023-04-25T15:58:29.083Z,5.15
2023-04-25T16:03:36.384Z,1.98
2023-04-25T16:08:37.653Z,3.53
2023-04-25T16:13:39.845Z,3.17
